Terminal Aerodrome Forecast
Issued by NWS

Home | Current Version | Previous Version | Text Only | Print | Product List | Glossary Off
Versions: 1 2 3 4 5 6 7 8 9 10 11 12 13 14 15 16 17 18

000
FTUS43 KGRB 280923 AAA
TAFAUW
TAF AMD
KAUW 280923Z 2809/2906 16006KT 5SM BR BKN006 OVC012
      TEMPO 2809/2812 2SM -SHRA BR OVC004
     FM281500 16008KT P6SM VCSH OVC008
     FM281700 17009KT P6SM VCSH BKN020
     FM281900 18010KT P6SM VCSH BKN040
     FM290000 19008KT P6SM SHRA BKN040 BKN070
     FM290400 18004KT P6SM SHRA BKN040 BKN070=

USA.gov is the U.S. government's official web portal to all federal, state and local government web resources and services.